sensor_id;sensor_type;location;lat;lon;timestamp;temperature;humidity
10883;DHT22;5494;51.796;10.952;2023-07-29T00:00:32;20.50;99.90
10883;DHT22;5494;51.796;10.952;2023-07-29T00:03:00;20.50;99.90
10883;DHT22;5494;51.796;10.952;2023-07-29T00:05:28;20.50;99.90
10883;DHT22;5494;51.796;10.952;2023-07-29T00:07:58;20.40;99.90
10883;DHT22;5494;51.796;10.952;2023-07-29T00:10:27;20.40;99.90
10883;DHT22;5494;51.796;10.952;2023-07-29T00:12:55;20.40;99.90
10883;DHT22;5494;51.796;10.952;2023-07-29T00:15:23;20.30;99.90
10883;DHT22;5494;51.796;10.952;2023-07-29T00:17:51;20.30;99.90
10883;DHT22;5494;51.796;10.952;2023-07-29T00:20:19;20.30;99.90
10883;DHT22;5494;51.796;10.952;2023-07-29T00:22:47;20.30;99.90
10883;DHT22;5494;51.796;10.952;2023-07-29T00:25:17;20.30;99.90
10883;DHT22;5494;51.796;10.952;2023-07-29T00:27:45;20.30;99.90
10883;DHT22;5494;51.796;10.952;2023-07-29T00:30:13;20.30;99.90
10883;DHT22;5494;51.796;10.952;2023-07-29T00:32:42;20.30;99.90
10883;DHT22;5494;51.796;10.952;2023-07-29T00:35:12;20.30;99.90
10883;DHT22;5494;51.796;10.952;2023-07-29T00:37:40;20.30;99.90
10883;DHT22;5494;51.796;10.952;2023-07-29T00:40:15;20.30;99.90
10883;DHT22;5494;51.796;10.952;2023-07-29T00:42:49;20.30;99.90
10883;DHT22;5494;51.796;10.952;2023-07-29T00:45:18;20.30;99.90
10883;DHT22;5494;51.796;10.952;2023-07-29T00:47:47;20.30;99.90
10883;DHT22;5494;51.796;10.952;2023-07-29T00:50:16;20.30;99.90
10883;DHT22;5494;51.796;10.952;2023-07-29T00:52:45;20.30;99.90
10883;DHT22;5494;51.796;10.952;2023-07-29T00:55:15;20.20;99.90
10883;DHT22;5494;51.796;10.952;2023-07-29T00:57:43;20.20;99.90
10883;DHT22;5494;51.796;10.952;2023-07-29T01:00:16;20.10;99.90
10883;DHT22;5494;51.796;10.952;2023-07-29T01:02:44;20.10;99.90
10883;DHT22;5494;51.796;10.952;2023-07-29T01:05:15;20.00;99.90
10883;DHT22;5494;51.796;10.952;2023-07-29T01:07:48;20.00;99.90
10883;DHT22;5494;51.796;10.952;2023-07-29T01:10:39;19.90;99.90
10883;DHT22;5494;51.796;10.952;2023-07-29T01:13:19;19.80;99.90
10883;DHT22;5494;51.796;10.952;2023-07-29T01:15:56;19.70;99.90
10883;DHT22;5494;51.796;10.952;2023-07-29T01:18:31;19.60;99.90
10883;DHT22;5494;51.796;10.952;2023-07-29T01:21:04;19.50;99.90
10883;DHT22;5494;51.796;10.952;2023-07-29T01:23:36;19.50;99.90
10883;DHT22;5494;51.796;10.952;2023-07-29T01:26:04;19.50;99.90
10883;DHT22;5494;51.796;10.952;2023-07-29T01:28:33;19.40;99.90
10883;DHT22;5494;51.796;10.952;2023-07-29T01:31:10;19.40;99.90
10883;DHT22;5494;51.796;10.952;2023-07-29T01:33:47;19.30;99.90
10883;DHT22;5494;51.796;10.952;2023-07-29T01:36:23;19.30;99.90
10883;DHT22;5494;51.796;10.952;2023-07-29T01:38:57;19.30;99.90
10883;DHT22;5494;51.796;10.952;2023-07-29T01:41:27;19.30;99.90
10883;DHT22;5494;51.796;10.952;2023-07-29T01:43:56;19.20;99.90
10883;DHT22;5494;51.796;10.952;2023-07-29T01:46:25;19.20;99.90
10883;DHT22;5494;51.796;10.952;2023-07-29T01:48:53;19.10;99.90
10883;DHT22;5494;51.796;10.952;2023-07-29T01:51:21;19.10;99.90
10883;DHT22;5494;51.796;10.952;2023-07-29T01:53:49;19.10;99.90
10883;DHT22;5494;51.796;10.952;2023-07-29T01:56:19;19.00;99.90
10883;DHT22;5494;51.796;10.952;2023-07-29T01:58:53;19.00;99.90
10883;DHT22;5494;51.796;10.952;2023-07-29T02:01:21;18.90;99.90
10883;DHT22;5494;51.796;10.952;2023-07-29T02:03:50;18.90;99.90
10883;DHT22;5494;51.796;10.952;2023-07-29T02:06:22;18.90;99.90
10883;DHT22;5494;51.796;10.952;2023-07-29T02:08:51;18.80;99.90
10883;DHT22;5494;51.796;10.952;2023-07-29T02:11:20;18.80;99.90
10883;DHT22;5494;51.796;10.952;2023-07-29T02:13:55;18.80;99.90
10883;DHT22;5494;51.796;10.952;2023-07-29T02:16:23;18.80;99.90
10883;DHT22;5494;51.796;10.952;2023-07-29T02:18:51;18.70;99.90
10883;DHT22;5494;51.796;10.952;2023-07-29T02:21:22;18.70;99.90
10883;DHT22;5494;51.796;10.952;2023-07-29T02:23:50;18.70;99.90
10883;DHT22;5494;51.796;10.952;2023-07-29T02:26:20;18.80;99.90
10883;DHT22;5494;51.796;10.952;2023-07-29T02:28:48;18.80;99.90
10883;DHT22;5494;51.796;10.952;2023-07-29T02:31:17;18.70;99.90
10883;DHT22;5494;51.796;10.952;2023-07-29T02:33:47;18.70;99.90
10883;DHT22;5494;51.796;10.952;2023-07-29T02:36:17;18.60;99.90
10883;DHT22;5494;51.796;10.952;2023-07-29T02:38:45;18.60;99.90
10883;DHT22;5494;51.796;10.952;2023-07-29T02:41:14;18.60;99.90
10883;DHT22;5494;51.796;10.952;2023-07-29T02:43:48;18.60;99.90
10883;DHT22;5494;51.796;10.952;2023-07-29T02:46:18;18.60;99.90
10883;DHT22;5494;51.796;10.952;2023-07-29T02:48:46;18.50;99.90
10883;DHT22;5494;51.796;10.952;2023-07-29T02:51:14;18.50;99.90
10883;DHT22;5494;51.796;10.952;2023-07-29T02:53:42;18.50;99.90
10883;DHT22;5494;51.796;10.952;2023-07-29T02:56:10;18.50;99.90
10883;DHT22;5494;51.796;10.952;2023-07-29T02:58:39;18.40;99.90
10883;DHT22;5494;51.796;10.952;2023-07-29T03:01:09;18.40;99.90
10883;DHT22;5494;51.796;10.952;2023-07-29T03:03:37;18.40;99.90
10883;DHT22;5494;51.796;10.952;2023-07-29T03:06:06;18.30;99.90
10883;DHT22;5494;51.796;10.952;2023-07-29T03:08:36;18.40;99.90
10883;DHT22;5494;51.796;10.952;2023-07-29T03:11:06;18.40;99.90
10883;DHT22;5494;51.796;10.952;2023-07-29T03:13:35;18.50;99.90
10883;DHT22;5494;51.796;10.952;2023-07-29T03:16:07;18.60;99.90
10883;DHT22;5494;51.796;10.952;2023-07-29T03:18:39;18.70;99.90
10883;DHT22;5494;51.796;10.952;2023-07-29T03:21:08;18.90;99.90
10883;DHT22;5494;51.796;10.952;2023-07-29T03:23:38;19.10;99.90
10883;DHT22;5494;51.796;10.952;2023-07-29T03:26:06;19.20;99.90
10883;DHT22;5494;51.796;10.952;2023-07-29T03:28:39;19.20;99.90
10883;DHT22;5494;51.796;10.952;2023-07-29T03:31:10;19.20;99.90
10883;DHT22;5494;51.796;10.952;2023-07-29T03:33:39;19.30;99.90
10883;DHT22;5494;51.796;10.952;2023-07-29T03:36:07;19.40;99.90
10883;DHT22;5494;51.796;10.952;2023-07-29T03:38:35;19.50;99.90
10883;DHT22;5494;51.796;10.952;2023-07-29T03:41:07;19.50;99.90
10883;DHT22;5494;51.796;10.952;2023-07-29T03:43:36;19.50;99.90
10883;DHT22;5494;51.796;10.952;2023-07-29T03:46:04;19.40;99.90
10883;DHT22;5494;51.796;10.952;2023-07-29T03:48:38;19.20;99.90
10883;DHT22;5494;51.796;10.952;2023-07-29T03:51:07;19.10;99.90
10883;DHT22;5494;51.796;10.952;2023-07-29T03:53:35;19.00;99.90
10883;DHT22;5494;51.796;10.952;2023-07-29T03:56:03;19.10;99.90
10883;DHT22;5494;51.796;10.952;2023-07-29T03:58:32;19.10;99.90
10883;DHT22;5494;51.796;10.952;2023-07-29T04:01:00;19.10;99.90
10883;DHT22;5494;51.796;10.952;2023-07-29T04:03:28;19.20;99.90
10883;DHT22;5494;51.796;10.952;2023-07-29T04:05:58;19.30;99.90
10883;DHT22;5494;51.796;10.952;2023-07-29T04:08:26;19.40;99.90
10883;DHT22;5494;51.796;10.952;2023-07-29T04:10:54;19.60;99.90
10883;DHT22;5494;51.796;10.952;2023-07-29T04:13:22;19.80;99.90
10883;DHT22;5494;51.796;10.952;2023-07-29T04:15:50;19.90;99.90
10883;DHT22;5494;51.796;10.952;2023-07-29T04:18:19;19.90;99.90
10883;DHT22;5494;51.796;10.952;2023-07-29T04:20:48;19.90;99.90
10883;DHT22;5494;51.796;10.952;2023-07-29T04:23:17;19.90;99.90
10883;DHT22;5494;51.796;10.952;2023-07-29T04:25:45;19.80;99.90
10883;DHT22;5494;51.796;10.952;2023-07-29T04:28:13;19.80;99.90
10883;DHT22;5494;51.796;10.952;2023-07-29T04:30:41;20.00;99.90
10883;DHT22;5494;51.796;10.952;2023-07-29T04:33:09;20.10;99.90
10883;DHT22;5494;51.796;10.952;2023-07-29T04:35:38;20.10;99.90
10883;DHT22;5494;51.796;10.952;2023-07-29T04:38:06;20.10;99.90
10883;DHT22;5494;51.796;10.952;2023-07-29T04:40:35;20.10;99.90
10883;DHT22;5494;51.796;10.952;2023-07-29T04:43:04;20.10;99.90
10883;DHT22;5494;51.796;10.952;2023-07-29T04:45:32;20.10;99.90
10883;DHT22;5494;51.796;10.952;2023-07-29T04:48:00;20.20;99.90
10883;DHT22;5494;51.796;10.952;2023-07-29T04:50:28;20.40;99.90
10883;DHT22;5494;51.796;10.952;2023-07-29T04:52:56;20.60;99.90
10883;DHT22;5494;51.796;10.952;2023-07-29T04:55:24;20.70;99.90
10883;DHT22;5494;51.796;10.952;2023-07-29T04:57:54;20.90;99.90
10883;DHT22;5494;51.796;10.952;2023-07-29T05:00:23;21.10;99.90
10883;DHT22;5494;51.796;10.952;2023-07-29T05:02:51;21.20;99.90
10883;DHT22;5494;51.796;10.952;2023-07-29T05:05:19;21.30;99.90
10883;DHT22;5494;51.796;10.952;2023-07-29T05:07:48;21.50;99.90
10883;DHT22;5494;51.796;10.952;2023-07-29T05:10:16;21.80;99.90
10883;DHT22;5494;51.796;10.952;2023-07-29T05:12:45;22.10;99.90
10883;DHT22;5494;51.796;10.952;2023-07-29T05:15:15;22.40;99.90
10883;DHT22;5494;51.796;10.952;2023-07-29T05:17:43;22.70;99.90
10883;DHT22;5494;51.796;10.952;2023-07-29T05:20:11;22.50;99.90
10883;DHT22;5494;51.796;10.952;2023-07-29T05:22:39;22.40;99.90
10883;DHT22;5494;51.796;10.952;2023-07-29T05:25:08;22.30;99.90
10883;DHT22;5494;51.796;10.952;2023-07-29T05:27:36;22.20;99.90
10883;DHT22;5494;51.796;10.952;2023-07-29T05:30:06;22.00;99.90
10883;DHT22;5494;51.796;10.952;2023-07-29T05:32:37;21.90;99.90
10883;DHT22;5494;51.796;10.952;2023-07-29T05:35:06;21.70;99.90
10883;DHT22;5494;51.796;10.952;2023-07-29T05:37:37;21.60;99.90
10883;DHT22;5494;51.796;10.952;2023-07-29T05:40:07;21.50;99.90
10883;DHT22;5494;51.796;10.952;2023-07-29T05:42:37;21.50;99.90
10883;DHT22;5494;51.796;10.952;2023-07-29T05:45:07;21.40;99.90
10883;DHT22;5494;51.796;10.952;2023-07-29T05:47:37;21.20;99.90
10883;DHT22;5494;51.796;10.952;2023-07-29T05:50:06;21.10;99.90
10883;DHT22;5494;51.796;10.952;2023-07-29T05:52:35;21.00;99.90
10883;DHT22;5494;51.796;10.952;2023-07-29T05:55:09;20.90;99.90
10883;DHT22;5494;51.796;10.952;2023-07-29T05:57:37;20.90;99.90
10883;DHT22;5494;51.796;10.952;2023-07-29T06:00:10;20.80;99.90
10883;DHT22;5494;51.796;10.952;2023-07-29T06:02:40;20.70;99.90
10883;DHT22;5494;51.796;10.952;2023-07-29T06:05:13;20.60;99.90
10883;DHT22;5494;51.796;10.952;2023-07-29T06:07:41;20.50;99.90
10883;DHT22;5494;51.796;10.952;2023-07-29T06:10:12;20.40;99.90
10883;DHT22;5494;51.796;10.952;2023-07-29T06:12:44;20.40;99.90
10883;DHT22;5494;51.796;10.952;2023-07-29T06:15:12;20.40;99.90
10883;DHT22;5494;51.796;10.952;2023-07-29T06:17:42;20.50;99.90
10883;DHT22;5494;51.796;10.952;2023-07-29T06:20:11;20.50;99.90
10883;DHT22;5494;51.796;10.952;2023-07-29T06:22:39;20.50;99.90
10883;DHT22;5494;51.796;10.952;2023-07-29T06:25:08;20.60;99.90
10883;DHT22;5494;51.796;10.952;2023-07-29T06:27:38;20.40;99.90
10883;DHT22;5494;51.796;10.952;2023-07-29T06:30:06;20.40;99.90
10883;DHT22;5494;51.796;10.952;2023-07-29T06:32:35;20.40;99.90
10883;DHT22;5494;51.796;10.952;2023-07-29T06:35:06;20.40;99.90
10883;DHT22;5494;51.796;10.952;2023-07-29T06:37:34;20.70;99.90
10883;DHT22;5494;51.796;10.952;2023-07-29T06:40:03;21.00;99.90
10883;DHT22;5494;51.796;10.952;2023-07-29T06:42:32;21.40;99.90
10883;DHT22;5494;51.796;10.952;2023-07-29T06:45:00;22.00;99.90
10883;DHT22;5494;51.796;10.952;2023-07-29T06:47:28;22.50;99.90
10883;DHT22;5494;51.796;10.952;2023-07-29T06:49:56;23.00;99.90
10883;DHT22;5494;51.796;10.952;2023-07-29T06:52:25;23.30;99.90
10883;DHT22;5494;51.796;10.952;2023-07-29T06:54:53;23.50;99.90
10883;DHT22;5494;51.796;10.952;2023-07-29T06:57:21;23.60;99.90
10883;DHT22;5494;51.796;10.952;2023-07-29T06:59:50;23.40;99.90
10883;DHT22;5494;51.796;10.952;2023-07-29T07:02:18;23.50;99.90
10883;DHT22;5494;51.796;10.952;2023-07-29T07:04:46;24.00;99.90
10883;DHT22;5494;51.796;10.952;2023-07-29T07:07:14;24.40;99.90
10883;DHT22;5494;51.796;10.952;2023-07-29T07:09:44;24.40;99.90
10883;DHT22;5494;51.796;10.952;2023-07-29T07:12:12;24.40;99.90
10883;DHT22;5494;51.796;10.952;2023-07-29T07:14:40;24.70;99.90
10883;DHT22;5494;51.796;10.952;2023-07-29T07:17:08;25.20;99.90
10883;DHT22;5494;51.796;10.952;2023-07-29T07:19:39;25.70;99.90
10883;DHT22;5494;51.796;10.952;2023-07-29T07:22:07;26.30;99.90
10883;DHT22;5494;51.796;10.952;2023-07-29T07:24:35;26.20;99.90
10883;DHT22;5494;51.796;10.952;2023-07-29T07:27:05;26.20;99.90
10883;DHT22;5494;51.796;10.952;2023-07-29T07:29:34;25.80;99.90
10883;DHT22;5494;51.796;10.952;2023-07-29T07:32:02;25.70;99.90
10883;DHT22;5494;51.796;10.952;2023-07-29T07:34:30;25.60;99.90
10883;DHT22;5494;51.796;10.952;2023-07-29T07:37:00;25.60;99.90
10883;DHT22;5494;51.796;10.952;2023-07-29T07:39:31;25.60;99.90
10883;DHT22;5494;51.796;10.952;2023-07-29T07:41:59;25.10;99.90
10883;DHT22;5494;51.796;10.952;2023-07-29T07:44:29;24.90;99.90
10883;DHT22;5494;51.796;10.952;2023-07-29T07:46:57;24.70;99.90
10883;DHT22;5494;51.796;10.952;2023-07-29T07:49:26;24.50;99.90
10883;DHT22;5494;51.796;10.952;2023-07-29T07:51:54;24.50;99.90
10883;DHT22;5494;51.796;10.952;2023-07-29T07:54:22;24.50;99.90
10883;DHT22;5494;51.796;10.952;2023-07-29T07:56:50;24.70;99.90
10883;DHT22;5494;51.796;10.952;2023-07-29T07:59:18;24.60;99.90
10883;DHT22;5494;51.796;10.952;2023-07-29T08:01:48;24.50;99.90
10883;DHT22;5494;51.796;10.952;2023-07-29T08:04:16;24.50;99.90
10883;DHT22;5494;51.796;10.952;2023-07-29T08:06:44;24.30;99.90
10883;DHT22;5494;51.796;10.952;2023-07-29T08:09:12;24.30;99.90
10883;DHT22;5494;51.796;10.952;2023-07-29T08:11:40;24.40;99.90
10883;DHT22;5494;51.796;10.952;2023-07-29T08:14:08;24.50;99.90
10883;DHT22;5494;51.796;10.952;2023-07-29T08:16:36;24.50;99.90
10883;DHT22;5494;51.796;10.952;2023-07-29T08:19:06;24.50;99.90
10883;DHT22;5494;51.796;10.952;2023-07-29T08:21:36;24.80;99.90
10883;DHT22;5494;51.796;10.952;2023-07-29T08:24:04;24.60;99.90
10883;DHT22;5494;51.796;10.952;2023-07-29T08:26:33;24.20;99.90
10883;DHT22;5494;51.796;10.952;2023-07-29T08:29:02;24.10;99.90
10883;DHT22;5494;51.796;10.952;2023-07-29T08:31:30;23.80;99.90
10883;DHT22;5494;51.796;10.952;2023-07-29T08:34:00;23.80;99.90
10883;DHT22;5494;51.796;10.952;2023-07-29T08:36:30;23.30;99.90
10883;DHT22;5494;51.796;10.952;2023-07-29T08:38:58;22.90;99.90
10883;DHT22;5494;51.796;10.952;2023-07-29T08:41:29;22.60;99.90
10883;DHT22;5494;51.796;10.952;2023-07-29T08:44:06;22.20;99.90
10883;DHT22;5494;51.796;10.952;2023-07-29T08:46:40;21.90;99.90
10883;DHT22;5494;51.796;10.952;2023-07-29T08:49:08;21.80;99.90
10883;DHT22;5494;51.796;10.952;2023-07-29T08:51:43;21.50;99.90
10883;DHT22;5494;51.796;10.952;2023-07-29T08:54:14;21.60;99.90
10883;DHT22;5494;51.796;10.952;2023-07-29T08:56:43;21.80;99.90
10883;DHT22;5494;51.796;10.952;2023-07-29T08:59:12;22.00;99.90
10883;DHT22;5494;51.796;10.952;2023-07-29T09:01:43;22.10;99.90
10883;DHT22;5494;51.796;10.952;2023-07-29T09:04:11;22.20;99.90
10883;DHT22;5494;51.796;10.952;2023-07-29T09:06:40;22.30;99.90
10883;DHT22;5494;51.796;10.952;2023-07-29T09:09:12;22.50;99.90
10883;DHT22;5494;51.796;10.952;2023-07-29T09:11:40;22.60;99.90
10883;DHT22;5494;51.796;10.952;2023-07-29T09:14:09;22.70;99.90
10883;DHT22;5494;51.796;10.952;2023-07-29T09:16:37;22.90;99.90
10883;DHT22;5494;51.796;10.952;2023-07-29T09:19:06;23.00;99.90
10883;DHT22;5494;51.796;10.952;2023-07-29T09:21:38;22.80;99.90
10883;DHT22;5494;51.796;10.952;2023-07-29T09:24:08;22.70;99.90
10883;DHT22;5494;51.796;10.952;2023-07-29T09:26:38;22.70;99.90
10883;DHT22;5494;51.796;10.952;2023-07-29T09:29:16;22.90;99.90
10883;DHT22;5494;51.796;10.952;2023-07-29T09:31:50;23.20;99.90
10883;DHT22;5494;51.796;10.952;2023-07-29T09:34:18;23.50;99.90
10883;DHT22;5494;51.796;10.952;2023-07-29T09:36:46;23.50;99.90
10883;DHT22;5494;51.796;10.952;2023-07-29T09:39:15;23.40;99.90
10883;DHT22;5494;51.796;10.952;2023-07-29T09:41:47;23.30;99.90
10883;DHT22;5494;51.796;10.952;2023-07-29T09:44:16;23.20;99.90
10883;DHT22;5494;51.796;10.952;2023-07-29T09:46:46;23.30;99.90
10883;DHT22;5494;51.796;10.952;2023-07-29T09:49:14;23.40;99.90
10883;DHT22;5494;51.796;10.952;2023-07-29T09:51:42;23.50;99.90
10883;DHT22;5494;51.796;10.952;2023-07-29T09:54:11;23.60;99.90
10883;DHT22;5494;51.796;10.952;2023-07-29T09:56:44;23.80;99.90
10883;DHT22;5494;51.796;10.952;2023-07-29T09:59:18;24.10;99.90
10883;DHT22;5494;51.796;10.952;2023-07-29T10:01:47;24.00;99.90
10883;DHT22;5494;51.796;10.952;2023-07-29T10:04:16;24.00;99.90
10883;DHT22;5494;51.796;10.952;2023-07-29T10:06:45;24.10;99.90
10883;DHT22;5494;51.796;10.952;2023-07-29T10:09:14;24.20;99.90
10883;DHT22;5494;51.796;10.952;2023-07-29T10:11:44;24.50;99.90
10883;DHT22;5494;51.796;10.952;2023-07-29T10:14:14;24.80;99.90
10883;DHT22;5494;51.796;10.952;2023-07-29T10:16:44;24.80;99.90
10883;DHT22;5494;51.796;10.952;2023-07-29T10:19:14;25.10;99.90
10883;DHT22;5494;51.796;10.952;2023-07-29T10:21:44;25.20;99.90
10883;DHT22;5494;51.796;10.952;2023-07-29T10:24:18;25.60;99.90
10883;DHT22;5494;51.796;10.952;2023-07-29T10:26:58;25.70;99.90
10883;DHT22;5494;51.796;10.952;2023-07-29T10:29:30;25.70;99.90
10883;DHT22;5494;51.796;10.952;2023-07-29T10:32:01;25.50;99.90
10883;DHT22;5494;51.796;10.952;2023-07-29T10:34:31;25.20;99.90
10883;DHT22;5494;51.796;10.952;2023-07-29T10:37:00;25.10;99.90
10883;DHT22;5494;51.796;10.952;2023-07-29T10:39:38;25.10;99.90
10883;DHT22;5494;51.796;10.952;2023-07-29T10:42:08;25.00;99.90
10883;DHT22;5494;51.796;10.952;2023-07-29T10:44:46;24.90;99.90
10883;DHT22;5494;51.796;10.952;2023-07-29T10:47:17;24.80;99.90
10883;DHT22;5494;51.796;10.952;2023-07-29T10:49:49;24.60;99.90
10883;DHT22;5494;51.796;10.952;2023-07-29T10:52:29;24.50;99.90
10883;DHT22;5494;51.796;10.952;2023-07-29T10:54:59;24.10;99.90
10883;DHT22;5494;51.796;10.952;2023-07-29T10:57:34;23.80;99.90
10883;DHT22;5494;51.796;10.952;2023-07-29T11:00:04;23.60;99.90
10883;DHT22;5494;51.796;10.952;2023-07-29T11:02:35;23.70;99.90
10883;DHT22;5494;51.796;10.952;2023-07-29T11:05:06;23.80;99.90
10883;DHT22;5494;51.796;10.952;2023-07-29T11:07:44;24.00;99.90
10883;DHT22;5494;51.796;10.952;2023-07-29T11:10:14;24.00;99.90
10883;DHT22;5494;51.796;10.952;2023-07-29T11:12:45;24.00;99.90
10883;DHT22;5494;51.796;10.952;2023-07-29T11:15:16;23.80;99.90
10883;DHT22;5494;51.796;10.952;2023-07-29T11:17:48;23.80;99.90
10883;DHT22;5494;51.796;10.952;2023-07-29T11:20:19;24.10;99.90
10883;DHT22;5494;51.796;10.952;2023-07-29T11:22:48;24.30;99.90
10883;DHT22;5494;51.796;10.952;2023-07-29T11:25:17;24.40;99.90
10883;DHT22;5494;51.796;10.952;2023-07-29T11:27:47;24.60;99.90
10883;DHT22;5494;51.796;10.952;2023-07-29T11:30:16;24.50;99.90
10883;DHT22;5494;51.796;10.952;2023-07-29T11:32:45;24.40;99.90
10883;DHT22;5494;51.796;10.952;2023-07-29T11:35:15;24.20;99.90
10883;DHT22;5494;51.796;10.952;2023-07-29T11:37:46;24.10;99.90
10883;DHT22;5494;51.796;10.952;2023-07-29T11:40:16;24.10;99.90
10883;DHT22;5494;51.796;10.952;2023-07-29T11:42:48;24.00;99.90
10883;DHT22;5494;51.796;10.952;2023-07-29T11:45:19;23.90;99.90
10883;DHT22;5494;51.796;10.952;2023-07-29T11:47:51;23.90;99.90
10883;DHT22;5494;51.796;10.952;2023-07-29T11:50:19;24.00;99.90
10883;DHT22;5494;51.796;10.952;2023-07-29T11:52:48;24.00;99.90
10883;DHT22;5494;51.796;10.952;2023-07-29T11:55:16;24.00;99.90
10883;DHT22;5494;51.796;10.952;2023-07-29T11:57:50;24.10;99.90
10883;DHT22;5494;51.796;10.952;2023-07-29T12:00:20;24.20;99.90
10883;DHT22;5494;51.796;10.952;2023-07-29T12:02:49;24.40;99.90
10883;DHT22;5494;51.796;10.952;2023-07-29T12:05:18;24.50;99.90
10883;DHT22;5494;51.796;10.952;2023-07-29T12:07:48;24.80;99.90
10883;DHT22;5494;51.796;10.952;2023-07-29T12:10:17;25.10;99.90
10883;DHT22;5494;51.796;10.952;2023-07-29T12:12:50;25.30;99.90
10883;DHT22;5494;51.796;10.952;2023-07-29T12:15:25;25.40;99.90
10883;DHT22;5494;51.796;10.952;2023-07-29T12:17:55;25.40;99.90
10883;DHT22;5494;51.796;10.952;2023-07-29T12:20:25;25.50;99.90
10883;DHT22;5494;51.796;10.952;2023-07-29T12:22:56;25.60;99.90
10883;DHT22;5494;51.796;10.952;2023-07-29T12:25:28;25.50;99.90
10883;DHT22;5494;51.796;10.952;2023-07-29T12:28:02;25.20;99.90
10883;DHT22;5494;51.796;10.952;2023-07-29T12:30:30;25.00;99.90
10883;DHT22;5494;51.796;10.952;2023-07-29T12:32:59;24.90;99.90
10883;DHT22;5494;51.796;10.952;2023-07-29T12:35:35;24.70;99.90
10883;DHT22;5494;51.796;10.952;2023-07-29T12:38:04;24.50;99.90
10883;DHT22;5494;51.796;10.952;2023-07-29T12:40:32;24.50;99.90
10883;DHT22;5494;51.796;10.952;2023-07-29T12:43:01;24.40;99.90
10883;DHT22;5494;51.796;10.952;2023-07-29T12:45:36;24.30;99.90
10883;DHT22;5494;51.796;10.952;2023-07-29T12:48:06;24.40;99.90
10883;DHT22;5494;51.796;10.952;2023-07-29T12:50:34;24.70;99.90
10883;DHT22;5494;51.796;10.952;2023-07-29T12:53:04;24.90;99.90
10883;DHT22;5494;51.796;10.952;2023-07-29T12:55:32;25.00;99.90
10883;DHT22;5494;51.796;10.952;2023-07-29T12:58:02;25.10;99.90
10883;DHT22;5494;51.796;10.952;2023-07-29T13:00:30;25.00;99.90
10883;DHT22;5494;51.796;10.952;2023-07-29T13:02:58;24.80;99.90
10883;DHT22;5494;51.796;10.952;2023-07-29T13:05:27;24.80;99.90
10883;DHT22;5494;51.796;10.952;2023-07-29T13:07:55;24.90;99.90
10883;DHT22;5494;51.796;10.952;2023-07-29T13:10:23;25.10;99.90
10883;DHT22;5494;51.796;10.952;2023-07-29T13:12:52;25.30;99.90
10883;DHT22;5494;51.796;10.952;2023-07-29T13:15:21;25.20;99.90
10883;DHT22;5494;51.796;10.952;2023-07-29T13:17:49;25.20;99.90
10883;DHT22;5494;51.796;10.952;2023-07-29T13:20:17;25.00;99.90
10883;DHT22;5494;51.796;10.952;2023-07-29T13:22:46;24.90;99.90
10883;DHT22;5494;51.796;10.952;2023-07-29T13:25:14;24.90;99.90
10883;DHT22;5494;51.796;10.952;2023-07-29T13:27:42;25.00;99.90
10883;DHT22;5494;51.796;10.952;2023-07-29T13:30:10;25.10;99.90
10883;DHT22;5494;51.796;10.952;2023-07-29T13:32:39;25.30;99.90
10883;DHT22;5494;51.796;10.952;2023-07-29T13:35:08;25.30;99.90
10883;DHT22;5494;51.796;10.952;2023-07-29T13:37:36;25.30;99.90
10883;DHT22;5494;51.796;10.952;2023-07-29T13:40:06;25.30;99.90
10883;DHT22;5494;51.796;10.952;2023-07-29T13:42:34;25.40;99.90
10883;DHT22;5494;51.796;10.952;2023-07-29T13:45:03;25.30;99.90
10883;DHT22;5494;51.796;10.952;2023-07-29T13:47:32;25.30;99.90
10883;DHT22;5494;51.796;10.952;2023-07-29T13:50:01;25.40;99.90
10883;DHT22;5494;51.796;10.952;2023-07-29T13:52:30;25.40;99.90
10883;DHT22;5494;51.796;10.952;2023-07-29T13:54:58;25.40;99.90
10883;DHT22;5494;51.796;10.952;2023-07-29T13:57:26;25.40;99.90
10883;DHT22;5494;51.796;10.952;2023-07-29T13:59:55;25.60;99.90
10883;DHT22;5494;51.796;10.952;2023-07-29T14:02:23;25.80;99.90
10883;DHT22;5494;51.796;10.952;2023-07-29T14:04:52;25.90;99.90
10883;DHT22;5494;51.796;10.952;2023-07-29T14:07:22;26.10;99.90
10883;DHT22;5494;51.796;10.952;2023-07-29T14:09:51;26.00;99.90
10883;DHT22;5494;51.796;10.952;2023-07-29T14:12:19;25.90;99.90
10883;DHT22;5494;51.796;10.952;2023-07-29T14:14:47;25.70;99.90
10883;DHT22;5494;51.796;10.952;2023-07-29T14:17:15;25.60;99.90
10883;DHT22;5494;51.796;10.952;2023-07-29T14:19:43;25.40;99.90
10883;DHT22;5494;51.796;10.952;2023-07-29T14:22:11;25.30;99.90
10883;DHT22;5494;51.796;10.952;2023-07-29T14:24:41;25.40;99.90
10883;DHT22;5494;51.796;10.952;2023-07-29T14:27:09;25.50;99.90
10883;DHT22;5494;51.796;10.952;2023-07-29T14:29:37;25.40;99.90
10883;DHT22;5494;51.796;10.952;2023-07-29T14:32:05;25.40;99.90
10883;DHT22;5494;51.796;10.952;2023-07-29T14:34:34;25.40;99.90
10883;DHT22;5494;51.796;10.952;2023-07-29T14:37:02;25.40;99.90
10883;DHT22;5494;51.796;10.952;2023-07-29T14:39:30;25.40;99.90
10883;DHT22;5494;51.796;10.952;2023-07-29T14:41:59;25.30;99.90
10883;DHT22;5494;51.796;10.952;2023-07-29T14:44:27;25.30;99.90
10883;DHT22;5494;51.796;10.952;2023-07-29T14:46:55;25.30;99.80
10883;DHT22;5494;51.796;10.952;2023-07-29T14:49:24;25.20;99.70
10883;DHT22;5494;51.796;10.952;2023-07-29T14:51:52;25.20;99.30
10883;DHT22;5494;51.796;10.952;2023-07-29T14:54:20;25.20;99.20
10883;DHT22;5494;51.796;10.952;2023-07-29T14:56:48;25.10;99.90
10883;DHT22;5494;51.796;10.952;2023-07-29T14:59:18;25.20;99.90
10883;DHT22;5494;51.796;10.952;2023-07-29T15:01:46;25.30;99.90
10883;DHT22;5494;51.796;10.952;2023-07-29T15:04:14;25.20;99.90
10883;DHT22;5494;51.796;10.952;2023-07-29T15:06:43;25.20;99.90
10883;DHT22;5494;51.796;10.952;2023-07-29T15:09:11;25.30;99.90
10883;DHT22;5494;51.796;10.952;2023-07-29T15:11:39;25.30;99.60
10883;DHT22;5494;51.796;10.952;2023-07-29T15:14:07;25.20;99.50
10883;DHT22;5494;51.796;10.952;2023-07-29T15:16:40;25.10;99.90
10883;DHT22;5494;51.796;10.952;2023-07-29T15:19:08;25.10;99.90
10883;DHT22;5494;51.796;10.952;2023-07-29T15:21:36;25.10;99.80
10883;DHT22;5494;51.796;10.952;2023-07-29T15:24:04;25.00;99.90
10883;DHT22;5494;51.796;10.952;2023-07-29T15:26:33;25.00;99.90
10883;DHT22;5494;51.796;10.952;2023-07-29T15:29:02;25.00;99.90
10883;DHT22;5494;51.796;10.952;2023-07-29T15:31:30;24.90;99.90
10883;DHT22;5494;51.796;10.952;2023-07-29T15:34:00;24.90;99.90
10883;DHT22;5494;51.796;10.952;2023-07-29T15:36:28;24.70;99.90
10883;DHT22;5494;51.796;10.952;2023-07-29T15:38:56;24.70;99.90
10883;DHT22;5494;51.796;10.952;2023-07-29T15:41:24;24.70;99.90
10883;DHT22;5494;51.796;10.952;2023-07-29T15:43:52;24.50;99.90